Time;durP1;ratioP1;P1;durP2;ratioP2;P2;SDS_P1;SDS_P2;PMS_P1;PMS_P2;Temp;Humidity;BMP_temperature;BMP_pressure;BME280_temperature;BME280_humidity;BME280_pressure;Samples;Min_cycle;Max_cycle;Signal;HPM_P1;HPM_P2
2022/03/10 00:01:31;;;;;;;;;;;21.70;38.50;;;;;;5066542;28;20285;-44
2022/03/10 00:03:58;;;;;;;;;;;21.70;38.50;;;;;;5053424;28;20023;-44
2022/03/10 00:06:25;;;;;;;;;;;21.70;38.50;;;;;;5053393;28;20039;-41
2022/03/10 00:08:51;;;;;;;;;;;21.70;38.50;;;;;;5053690;28;19983;-42
2022/03/10 00:11:18;;;;;;;;;;;21.70;38.60;;;;;;5053271;28;19932;-41
2022/03/10 00:13:46;;;;;;;;;;;21.70;38.50;;;;;;5053314;28;20350;-43
2022/03/10 00:16:13;;;;;;;;;;;21.70;38.50;;;;;;5054518;28;19967;-41
2022/03/10 00:18:42;;;;;;;;;;;21.70;38.60;;;;;;5073631;28;19931;-43
2022/03/10 00:21:09;;;;;;;;;;;21.70;38.60;;;;;;5073044;28;20322;-44
2022/03/10 00:23:36;;;;;;;;;;;21.70;38.50;;;;;;5077116;28;19925;-44
2022/03/10 00:26:03;;;;;;;;;;;21.70;38.60;;;;;;5077165;28;19924;-47
2022/03/10 00:28:30;;;;;;;;;;;21.70;38.60;;;;;;5077076;28;20383;-43
2022/03/10 00:30:57;;;;;;;;;;;21.70;38.60;;;;;;5076827;28;19976;-44
2022/03/10 00:33:25;;;;;;;;;;;21.70;38.60;;;;;;5075589;28;19928;-42
2022/03/10 00:35:52;;;;;;;;;;;21.70;38.60;;;;;;5077251;28;20342;-42
2022/03/10 00:38:19;;;;;;;;;;;21.70;38.60;;;;;;5076881;28;19974;-44
2022/03/10 00:40:48;;;;;;;;;;;21.70;38.60;;;;;;5077141;28;20041;-40
2022/03/10 00:43:15;;;;;;;;;;;21.70;38.60;;;;;;5076783;28;19924;-43
2022/03/10 00:45:42;;;;;;;;;;;21.70;38.60;;;;;;5077021;28;20069;-41
2022/03/10 00:48:09;;;;;;;;;;;21.70;38.60;;;;;;5075120;28;20342;-49
2022/03/10 00:50:36;;;;;;;;;;;21.70;38.60;;;;;;5076990;28;20358;-41
2022/03/10 00:53:05;;;;;;;;;;;21.60;38.50;;;;;;5076361;28;19924;-41
2022/03/10 00:55:32;;;;;;;;;;;21.70;38.60;;;;;;5076579;28;19968;-43
2022/03/10 00:57:59;;;;;;;;;;;21.60;38.50;;;;;;5076794;28;19968;-42
2022/03/10 01:00:28;;;;;;;;;;;21.70;38.60;;;;;;5076345;28;20449;-42
2022/03/10 01:02:55;;;;;;;;;;;21.70;38.60;;;;;;5074952;28;19925;-42
2022/03/10 01:05:23;;;;;;;;;;;21.70;38.60;;;;;;5076372;28;19925;-42
2022/03/10 01:07:50;;;;;;;;;;;21.60;38.50;;;;;;5077203;28;20434;-46
2022/03/10 01:10:18;;;;;;;;;;;21.60;38.50;;;;;;5076298;28;20399;-43
2022/03/10 01:12:45;;;;;;;;;;;21.60;38.60;;;;;;5076150;28;19925;-41
2022/03/10 01:15:14;;;;;;;;;;;21.60;38.60;;;;;;5076771;28;20007;-41
2022/03/10 01:17:41;;;;;;;;;;;21.60;38.50;;;;;;5074756;28;19969;-42
2022/03/10 01:20:09;;;;;;;;;;;21.60;38.60;;;;;;5075967;28;19924;-44
2022/03/10 01:22:36;;;;;;;;;;;21.60;38.60;;;;;;5075943;28;19928;-41
2022/03/10 01:25:03;;;;;;;;;;;21.60;38.60;;;;;;5076357;28;19990;-42
2022/03/10 01:27:30;;;;;;;;;;;21.60;38.60;;;;;;5076559;28;19924;-41
2022/03/10 01:29:57;;;;;;;;;;;21.60;38.60;;;;;;5076153;28;20273;-41
2022/03/10 01:32:25;;;;;;;;;;;21.60;38.60;;;;;;5074661;28;20019;-42
2022/03/10 01:34:52;;;;;;;;;;;21.60;38.60;;;;;;5075220;28;19924;-42
2022/03/10 01:37:19;;;;;;;;;;;21.60;38.60;;;;;;5075797;28;19970;-43
2022/03/10 01:39:46;;;;;;;;;;;21.60;38.60;;;;;;5075764;28;19951;-40
2022/03/10 01:42:14;;;;;;;;;;;21.60;38.60;;;;;;5076023;28;19928;-41
2022/03/10 01:44:41;;;;;;;;;;;21.60;38.60;;;;;;5076001;28;20022;-43
2022/03/10 01:47:08;;;;;;;;;;;21.60;38.60;;;;;;5074100;28;19925;-41
2022/03/10 01:49:35;;;;;;;;;;;21.60;38.60;;;;;;5075878;28;20016;-41
2022/03/10 01:52:02;;;;;;;;;;;21.60;38.60;;;;;;5075279;28;19928;-43
2022/03/10 01:54:30;;;;;;;;;;;21.60;38.60;;;;;;5075435;28;19925;-41
2022/03/10 01:56:58;;;;;;;;;;;21.60;38.60;;;;;;5075712;28;19925;-42
2022/03/10 01:59:25;;;;;;;;;;;21.60;38.60;;;;;;5075585;28;19928;-41
2022/03/10 02:01:54;;;;;;;;;;;21.60;38.60;;;;;;5075634;28;19931;-41
2022/03/10 02:04:22;;;;;;;;;;;21.60;38.60;;;;;;5074131;28;19924;-43
2022/03/10 02:06:49;;;;;;;;;;;21.60;38.60;;;;;;5075514;28;19986;-42
2022/03/10 02:12:01;;;;;;;;;;;21.60;38.60;;;;;;5075430;28;20023;-41
2022/03/10 02:17:22;;;;;;;;;;;21.60;38.60;;;;;;5074795;28;19974;-44
2022/03/10 02:19:51;;;;;;;;;;;21.60;38.60;;;;;;5075080;28;19931;-42
2022/03/10 02:22:20;;;;;;;;;;;21.60;38.60;;;;;;5075080;28;19924;-41
2022/03/10 02:24:47;;;;;;;;;;;21.60;38.60;;;;;;5075193;28;19956;-41
2022/03/10 02:27:15;;;;;;;;;;;21.60;38.60;;;;;;5075100;28;19924;-41
2022/03/10 02:29:43;;;;;;;;;;;21.60;38.60;;;;;;5075078;28;19928;-42
2022/03/10 02:32:11;;;;;;;;;;;21.60;38.60;;;;;;5074668;28;19971;-41
2022/03/10 02:34:38;;;;;;;;;;;21.60;38.60;;;;;;5054693;28;20446;-41
2022/03/10 02:37:05;;;;;;;;;;;21.50;38.60;;;;;;5054975;28;19979;-44
2022/03/10 02:39:32;;;;;;;;;;;21.50;38.60;;;;;;5054900;28;19924;-41
2022/03/10 02:41:59;;;;;;;;;;;21.50;38.60;;;;;;5055716;28;19925;-43
2022/03/10 02:44:27;;;;;;;;;;;21.50;38.60;;;;;;5054395;28;20442;-41
2022/03/10 02:46:54;;;;;;;;;;;21.50;38.60;;;;;;5054793;28;19928;-41
2022/03/10 02:49:22;;;;;;;;;;;21.50;38.60;;;;;;5068133;28;19925;-41
2022/03/10 02:51:49;;;;;;;;;;;21.50;38.60;;;;;;5074100;28;20443;-42
2022/03/10 02:54:16;;;;;;;;;;;21.50;38.60;;;;;;5074628;28;19924;-43
2022/03/10 02:56:43;;;;;;;;;;;21.50;38.60;;;;;;5074566;28;19924;-44
2022/03/10 02:59:10;;;;;;;;;;;21.50;38.60;;;;;;5074296;28;19924;-46
2022/03/10 03:01:37;;;;;;;;;;;21.50;38.60;;;;;;5074186;28;19974;-46
2022/03/10 03:04:05;;;;;;;;;;;21.50;38.60;;;;;;5062073;28;19964;-49
2022/03/10 03:06:32;;;;;;;;;;;21.50;38.60;;;;;;5054444;28;19924;-48
2022/03/10 03:08:59;;;;;;;;;;;21.50;38.60;;;;;;5054083;28;20372;-44
2022/03/10 03:11:26;;;;;;;;;;;21.50;38.60;;;;;;5054032;28;19924;-44
2022/03/10 03:13:53;;;;;;;;;;;21.50;38.60;;;;;;5053964;28;20031;-48
2022/03/10 03:16:20;;;;;;;;;;;21.50;38.60;;;;;;5054284;28;19956;-47
2022/03/10 03:18:47;;;;;;;;;;;21.50;38.70;;;;;;5060930;28;20326;-48
2022/03/10 03:21:14;;;;;;;;;;;21.50;38.60;;;;;;5073766;28;19955;-51
2022/03/10 03:23:41;;;;;;;;;;;21.50;38.60;;;;;;5074725;28;19931;-44
2022/03/10 03:26:08;;;;;;;;;;;21.50;39.20;;;;;;5056463;28;20352;-43
2022/03/10 03:28:35;;;;;;;;;;;21.50;38.60;;;;;;5073928;28;19998;-43
2022/03/10 03:31:03;;;;;;;;;;;21.50;38.60;;;;;;5074085;28;20015;-42
2022/03/10 03:33:31;;;;;;;;;;;21.50;38.60;;;;;;5069007;28;19925;-42
2022/03/10 03:35:58;;;;;;;;;;;21.50;38.70;;;;;;5053754;28;19925;-42
2022/03/10 03:38:25;;;;;;;;;;;21.50;38.70;;;;;;5053641;28;20035;-45
2022/03/10 03:40:51;;;;;;;;;;;21.50;38.60;;;;;;5053658;28;20467;-41
2022/03/10 03:43:18;;;;;;;;;;;21.50;38.60;;;;;;5053927;28;19968;-45
2022/03/10 03:45:45;;;;;;;;;;;21.50;38.70;;;;;;5053581;28;19952;-43
2022/03/10 03:48:12;;;;;;;;;;;21.40;38.60;;;;;;5052991;28;19925;-45
2022/03/10 03:50:39;;;;;;;;;;;21.50;38.60;;;;;;5055933;28;20015;-42
2022/03/10 03:53:09;;;;;;;;;;;21.40;38.60;;;;;;5073841;28;20303;-41
2022/03/10 03:55:36;;;;;;;;;;;21.40;38.60;;;;;;5073808;28;19924;-41
2022/03/10 03:58:03;;;;;;;;;;;21.40;38.60;;;;;;5076632;28;20014;-41
2022/03/10 04:00:30;;;;;;;;;;;21.50;38.70;;;;;;5077486;28;20015;-41
2022/03/10 04:02:57;;;;;;;;;;;21.40;38.60;;;;;;5077618;28;20447;-41
2022/03/10 04:05:24;;;;;;;;;;;21.40;38.60;;;;;;5076128;28;19956;-41
2022/03/10 04:07:51;;;;;;;;;;;21.40;38.60;;;;;;5077827;28;19964;-41
2022/03/10 04:10:18;;;;;;;;;;;21.40;38.60;;;;;;5077480;28;19974;-42
2022/03/10 04:12:45;;;;;;;;;;;21.40;38.60;;;;;;5077376;28;19929;-44
2022/03/10 04:15:12;;;;;;;;;;;21.40;38.60;;;;;;5077363;28;19970;-41
2022/03/10 04:17:39;;;;;;;;;;;21.40;38.60;;;;;;5077639;28;19956;-41
2022/03/10 04:20:08;;;;;;;;;;;21.40;38.60;;;;;;5075988;28;19924;-42
2022/03/10 04:22:35;;;;;;;;;;;21.40;38.60;;;;;;5077025;28;20458;-43
2022/03/10 04:25:02;;;;;;;;;;;21.40;38.60;;;;;;5077201;28;19974;-43
2022/03/10 04:27:29;;;;;;;;;;;21.40;38.60;;;;;;5077435;28;19966;-42
2022/03/10 04:29:56;;;;;;;;;;;21.40;38.70;;;;;;5077236;28;20011;-44
2022/03/10 04:32:23;;;;;;;;;;;21.40;38.60;;;;;;5077305;28;19924;-41
2022/03/10 04:34:50;;;;;;;;;;;21.40;38.60;;;;;;5075955;28;20048;-43
2022/03/10 04:37:17;;;;;;;;;;;21.40;38.60;;;;;;5076954;28;19986;-43
2022/03/10 04:39:44;;;;;;;;;;;21.40;38.60;;;;;;5077203;28;20340;-41
2022/03/10 04:42:11;;;;;;;;;;;21.40;38.60;;;;;;5076848;28;19978;-43
2022/03/10 04:44:38;;;;;;;;;;;21.40;38.60;;;;;;5077075;28;20439;-41
2022/03/10 04:47:05;;;;;;;;;;;21.40;38.60;;;;;;5076725;28;19929;-43
2022/03/10 04:49:32;;;;;;;;;;;21.40;38.60;;;;;;5075228;28;19924;-44
2022/03/10 04:51:59;;;;;;;;;;;21.40;38.60;;;;;;5076876;28;19924;-43
2022/03/10 04:54:27;;;;;;;;;;;21.40;38.60;;;;;;5076597;28;19924;-41
2022/03/10 04:56:54;;;;;;;;;;;21.40;38.70;;;;;;5076888;28;20019;-46
2022/03/10 04:59:21;;;;;;;;;;;21.40;38.70;;;;;;5076537;28;19986;-43
2022/03/10 05:01:48;;;;;;;;;;;21.40;38.70;;;;;;5076786;28;19924;-46
2022/03/10 05:04:16;;;;;;;;;;;21.40;38.70;;;;;;5072684;28;19982;-40
2022/03/10 05:06:43;;;;;;;;;;;21.40;38.70;;;;;;5056700;28;19963;-41
2022/03/10 05:09:11;;;;;;;;;;;21.40;38.70;;;;;;5054984;28;20339;-41
2022/03/10 05:11:38;;;;;;;;;;;21.40;38.70;;;;;;5056298;28;19925;-41
2022/03/10 05:14:06;;;;;;;;;;;21.40;38.70;;;;;;5056176;28;19929;-42
2022/03/10 05:16:33;;;;;;;;;;;21.40;38.70;;;;;;5056225;28;19925;-42
2022/03/10 05:19:00;;;;;;;;;;;21.40;38.70;;;;;;5056456;28;20020;-40
2022/03/10 05:21:27;;;;;;;;;;;21.40;38.70;;;;;;5074007;28;19925;-42
2022/03/10 05:23:54;;;;;;;;;;;21.40;38.70;;;;;;5076063;28;19931;-42
2022/03/10 05:26:21;;;;;;;;;;;21.40;38.70;;;;;;5076354;28;19925;-42
2022/03/10 05:28:48;;;;;;;;;;;21.30;38.60;;;;;;5075815;28;19932;-43
2022/03/10 05:31:15;;;;;;;;;;;21.40;38.70;;;;;;5075957;28;19928;-42
2022/03/10 05:33:42;;;;;;;;;;;21.40;38.70;;;;;;5075860;28;19928;-41
2022/03/10 05:36:09;;;;;;;;;;;21.40;38.60;;;;;;5074718;28;19970;-41
2022/03/10 05:38:36;;;;;;;;;;;21.40;38.70;;;;;;5076927;28;19924;-42
2022/03/10 05:41:05;;;;;;;;;;;21.40;38.70;;;;;;5075983;28;19932;-41
2022/03/10 05:43:32;;;;;;;;;;;21.40;38.70;;;;;;5075594;28;19925;-42
2022/03/10 05:45:59;;;;;;;;;;;21.40;38.70;;;;;;5075686;28;19925;-43
2022/03/10 05:48:29;;;;;;;;;;;21.40;38.70;;;;;;5076459;28;19978;-41
2022/03/10 05:50:57;;;;;;;;;;;21.40;38.60;;;;;;5074276;28;20007;-41
2022/03/10 05:53:25;;;;;;;;;;;21.40;38.70;;;;;;5075747;28;20330;-40
2022/03/10 05:55:52;;;;;;;;;;;21.40;38.60;;;;;;5075825;28;19924;-41
2022/03/10 05:58:19;;;;;;;;;;;21.40;38.70;;;;;;5075450;28;19925;-42
2022/03/10 06:00:46;;;;;;;;;;;21.30;38.60;;;;;;5075361;28;19935;-41
2022/03/10 06:03:13;;;;;;;;;;;21.40;38.60;;;;;;5076253;28;20252;-42
2022/03/10 06:05:40;;;;;;;;;;;21.40;38.60;;;;;;5073918;28;20003;-43
2022/03/10 06:08:07;;;;;;;;;;;21.40;38.60;;;;;;5075518;28;20003;-42
2022/03/10 06:10:34;;;;;;;;;;;21.40;38.60;;;;;;5075459;28;20334;-42
2022/03/10 06:13:01;;;;;;;;;;;21.40;38.60;;;;;;5075320;28;19924;-49
2022/03/10 06:15:28;;;;;;;;;;;21.40;38.60;;;;;;5075380;28;19960;-48
2022/03/10 06:17:55;;;;;;;;;;;21.40;38.60;;;;;;5075277;28;19928;-45
2022/03/10 06:20:22;;;;;;;;;;;21.40;38.60;;;;;;5072832;28;20446;-47
2022/03/10 06:22:49;;;;;;;;;;;21.40;38.60;;;;;;5074739;28;19970;-45
2022/03/10 06:25:16;;;;;;;;;;;21.40;38.60;;;;;;5075207;28;19928;-50
2022/03/10 06:27:43;;;;;;;;;;;21.40;38.60;;;;;;5075138;28;20338;-45
2022/03/10 06:30:11;;;;;;;;;;;21.40;38.60;;;;;;5075014;28;20011;-47
2022/03/10 06:32:38;;;;;;;;;;;21.40;38.60;;;;;;5074908;28;19968;-44
2022/03/10 06:35:05;;;;;;;;;;;21.40;38.60;;;;;;5073138;28;19925;-49
2022/03/10 06:37:32;;;;;;;;;;;21.40;38.50;;;;;;5074956;28;19925;-44
2022/03/10 06:39:59;;;;;;;;;;;21.40;38.50;;;;;;5074869;28;19967;-45
2022/03/10 06:42:26;;;;;;;;;;;21.40;38.50;;;;;;5074776;28;19924;-45
2022/03/10 06:44:53;;;;;;;;;;;21.40;38.50;;;;;;5057372;28;20345;-42
2022/03/10 06:47:20;;;;;;;;;;;21.40;38.50;;;;;;5074406;28;19968;-44
2022/03/10 06:49:47;;;;;;;;;;;21.40;38.50;;;;;;5075231;28;19978;-49
2022/03/10 06:52:19;;;;;;;;;;;21.40;38.40;;;;;;5072905;28;19928;-44
2022/03/10 06:54:46;;;;;;;;;;;21.40;38.40;;;;;;5074269;28;20024;-41
2022/03/10 06:57:17;;;;;;;;;;;21.40;38.40;;;;;;5074560;28;20007;-42
2022/03/10 06:59:43;;;;;;;;;;;21.40;38.40;;;;;;5074042;28;20011;-42
2022/03/10 07:02:10;;;;;;;;;;;21.40;38.40;;;;;;5074157;28;20011;-42
2022/03/10 07:04:37;;;;;;;;;;;21.40;38.40;;;;;;5074446;28;20299;-41
2022/03/10 07:07:04;;;;;;;;;;;21.40;38.40;;;;;;5072754;28;19924;-40
2022/03/10 07:09:31;;;;;;;;;;;21.40;38.40;;;;;;5074110;28;19972;-43
2022/03/10 07:11:58;;;;;;;;;;;21.40;38.40;;;;;;5074016;28;20380;-41
2022/03/10 07:14:26;;;;;;;;;;;21.40;38.40;;;;;;5074237;28;20349;-41
2022/03/10 07:16:52;;;;;;;;;;;21.40;38.40;;;;;;5074313;28;20326;-40
2022/03/10 07:19:20;;;;;;;;;;;21.40;38.30;;;;;;5073830;28;20415;-41
2022/03/10 07:21:47;;;;;;;;;;;21.50;38.40;;;;;;5072152;28;19970;-42
2022/03/10 07:24:14;;;;;;;;;;;21.50;38.40;;;;;;5074057;28;19974;-42
2022/03/10 07:26:41;;;;;;;;;;;21.50;39.00;;;;;;5073437;28;20353;-42
2022/03/10 07:29:07;;;;;;;;;;;21.50;38.40;;;;;;5073114;28;19982;-44
2022/03/10 07:31:34;;;;;;;;;;;21.50;38.40;;;;;;5072926;28;19967;-44
2022/03/10 07:34:01;;;;;;;;;;;21.50;38.30;;;;;;5073495;28;19924;-42
2022/03/10 07:36:28;;;;;;;;;;;21.50;38.30;;;;;;5072093;28;19928;-41
2022/03/10 07:38:57;;;;;;;;;;;21.50;38.40;;;;;;5076699;28;19978;-43
2022/03/10 07:41:25;;;;;;;;;;;21.50;38.30;;;;;;5076996;28;19972;-41
2022/03/10 07:43:52;;;;;;;;;;;21.50;38.40;;;;;;5076643;28;19973;-42
2022/03/10 07:46:22;;;;;;;;;;;21.50;38.30;;;;;;5078070;28;19969;-41
2022/03/10 07:48:50;;;;;;;;;;;21.50;38.40;;;;;;5072865;28;19927;-41
2022/03/10 07:51:18;;;;;;;;;;;21.50;38.40;;;;;;5072079;28;20039;-43
2022/03/10 07:53:45;;;;;;;;;;;21.50;38.40;;;;;;5087639;28;19996;-43
2022/03/10 07:56:12;;;;;;;;;;;21.50;38.30;;;;;;5087172;28;20364;-42
2022/03/10 07:58:39;;;;;;;;;;;21.50;38.30;;;;;;5074924;28;19925;-46
2022/03/10 08:01:06;;;;;;;;;;;21.50;38.30;;;;;;5089477;28;19972;-41
2022/03/10 08:03:35;;;;;;;;;;;21.60;38.40;;;;;;5081126;28;19924;-47
2022/03/10 08:06:02;;;;;;;;;;;21.60;38.30;;;;;;5080214;28;19928;-44
2022/03/10 08:08:29;;;;;;;;;;;21.60;38.30;;;;;;5088816;28;20439;-49
2022/03/10 08:10:56;;;;;;;;;;;21.60;38.30;;;;;;5076864;28;19982;-44
2022/03/10 08:13:26;;;;;;;;;;;21.60;38.30;;;;;;5086841;28;19931;-41
2022/03/10 08:15:54;;;;;;;;;;;21.60;38.20;;;;;;5084150;28;19924;-43
2022/03/10 08:18:21;;;;;;;;;;;21.60;38.20;;;;;;5075813;28;20018;-44
2022/03/10 08:20:48;;;;;;;;;;;21.60;38.20;;;;;;5074428;28;19999;-43
2022/03/10 08:23:17;;;;;;;;;;;21.60;38.10;;;;;;5072254;28;20023;-41
2022/03/10 08:25:43;;;;;;;;;;;21.60;38.10;;;;;;5085823;28;19955;-44
2022/03/10 08:28:11;;;;;;;;;;;21.60;38.10;;;;;;5093179;28;19974;-42
2022/03/10 08:30:38;;;;;;;;;;;21.60;38.10;;;;;;5088519;28;19974;-46
2022/03/10 08:33:05;;;;;;;;;;;21.70;38.10;;;;;;5081533;28;19963;-42
2022/03/10 08:35:32;;;;;;;;;;;21.70;38.10;;;;;;5074215;28;19925;-44
2022/03/10 08:37:59;;;;;;;;;;;21.70;38.10;;;;;;5065284;28;20396;-44
2022/03/10 08:40:27;;;;;;;;;;;21.70;38.10;;;;;;5053074;28;19948;-43
2022/03/10 08:42:55;;;;;;;;;;;21.70;38.70;;;;;;5053300;28;20435;-44
2022/03/10 08:45:25;;;;;;;;;;;21.70;38.10;;;;;;5056879;28;19928;-41
2022/03/10 08:47:53;;;;;;;;;;;21.70;38.10;;;;;;5056791;28;20331;-44
2022/03/10 08:50:24;;;;;;;;;;;21.70;38.10;;;;;;5056970;28;19999;-43
2022/03/10 08:52:51;;;;;;;;;;;21.70;38.10;;;;;;5068517;28;19925;-45
2022/03/10 08:55:21;;;;;;;;;;;21.70;38.10;;;;;;5076769;28;19967;-44
2022/03/10 08:57:48;;;;;;;;;;;21.70;38.00;;;;;;5076542;28;20443;-45
2022/03/10 09:00:16;;;;;;;;;;;21.80;38.10;;;;;;5076479;28;19990;-44
2022/03/10 09:02:43;;;;;;;;;;;21.80;38.00;;;;;;5076400;28;19925;-45
2022/03/10 09:05:10;;;;;;;;;;;21.80;38.00;;;;;;5076748;28;20303;-45
2022/03/10 09:07:37;;;;;;;;;;;21.80;38.00;;;;;;5074784;28;19925;-45
2022/03/10 09:10:09;;;;;;;;;;;21.80;37.90;;;;;;5076317;28;19953;-46
2022/03/10 09:12:37;;;;;;;;;;;21.80;37.90;;;;;;5076228;28;20347;-47
2022/03/10 09:15:05;;;;;;;;;;;21.80;37.90;;;;;;5075535;28;19979;-46
2022/03/10 09:17:31;;;;;;;;;;;21.90;37.90;;;;;;5076305;28;19970;-46
2022/03/10 09:19:58;;;;;;;;;;;21.90;38.60;;;;;;5075954;28;19974;-45
2022/03/10 09:22:28;;;;;;;;;;;21.90;37.90;;;;;;5068616;28;20327;-48
2022/03/10 09:24:55;;;;;;;;;;;21.90;37.90;;;;;;5055975;28;19925;-50
2022/03/10 09:27:22;;;;;;;;;;;21.90;37.90;;;;;;5056168;28;19929;-51
2022/03/10 09:29:49;;;;;;;;;;;22.00;37.90;;;;;;5055416;28;20351;-49
2022/03/10 09:32:17;;;;;;;;;;;22.00;37.90;;;;;;5055556;28;19974;-49
2022/03/10 09:34:45;;;;;;;;;;;22.00;37.90;;;;;;5055357;28;20368;-48
2022/03/10 09:37:12;;;;;;;;;;;22.00;37.90;;;;;;5057776;28;19998;-52
2022/03/10 09:39:39;;;;;;;;;;;22.00;37.90;;;;;;5075422;28;19924;-47
2022/03/10 09:42:08;;;;;;;;;;;22.00;37.80;;;;;;5075600;28;19928;-46
2022/03/10 09:44:36;;;;;;;;;;;22.00;37.80;;;;;;5075467;28;19978;-47
2022/03/10 09:47:04;;;;;;;;;;;22.10;37.90;;;;;;5075621;28;20363;-47
2022/03/10 09:49:34;;;;;;;;;;;22.10;37.90;;;;;;5075478;28;19984;-46
2022/03/10 09:52:01;;;;;;;;;;;22.10;37.90;;;;;;5074515;28;20287;-46
2022/03/10 09:54:29;;;;;;;;;;;22.10;37.90;;;;;;5074785;28;19968;-51
2022/03/10 09:56:56;;;;;;;;;;;22.10;37.80;;;;;;5075765;28;19928;-45
2022/03/10 09:59:26;;;;;;;;;;;22.10;37.80;;;;;;5075629;28;20003;-45
2022/03/10 10:01:54;;;;;;;;;;;22.10;37.80;;;;;;5075665;28;19974;-47
2022/03/10 10:04:22;;;;;;;;;;;22.10;37.80;;;;;;5074996;28;20441;-49
2022/03/10 10:06:59;;;;;;;;;;;22.10;37.80;;;;;;5075177;28;19924;-46
2022/03/10 10:09:38;;;;;;;;;;;22.20;37.80;;;;;;5074449;28;19946;-43
2022/03/10 10:12:05;;;;;;;;;;;22.20;37.90;;;;;;5075108;28;19925;-49
2022/03/10 10:14:37;;;;;;;;;;;22.20;37.80;;;;;;5075008;28;20284;-46
2022/03/10 10:17:04;;;;;;;;;;;22.20;37.80;;;;;;5075284;28;19924;-46
2022/03/10 10:19:35;;;;;;;;;;;22.20;37.80;;;;;;5074917;28;20024;-47
2022/03/10 10:22:24;;;;;;;;;;;22.20;37.80;;;;;;5073345;28;20392;-45
2022/03/10 10:24:51;;;;;;;;;;;22.20;37.80;;;;;;5054709;28;19925;-48
2022/03/10 10:27:20;;;;;;;;;;;22.20;37.80;;;;;;5054382;28;19956;-45
2022/03/10 10:29:52;;;;;;;;;;;22.30;37.80;;;;;;5054733;28;20007;-44
2022/03/10 10:32:31;;;;;;;;;;;22.30;37.80;;;;;;5054678;28;20016;-45
2022/03/10 10:34:58;;;;;;;;;;;22.30;37.80;;;;;;5054371;28;19968;-44
2022/03/10 10:37:25;;;;;;;;;;;22.30;37.80;;;;;;5054462;28;19932;-43
2022/03/10 10:39:59;;;;;;;;;;;22.30;38.00;;;;;;5074629;28;20343;-45
2022/03/10 10:42:30;;;;;;;;;;;22.30;37.80;;;;;;5074832;28;20023;-47
2022/03/10 10:45:01;;;;;;;;;;;22.40;37.80;;;;;;5074255;28;20276;-45
2022/03/10 10:47:28;;;;;;;;;;;22.40;37.80;;;;;;5074307;28;19924;-44
2022/03/10 10:49:59;;;;;;;;;;;22.40;37.80;;;;;;5056475;28;19956;-44
2022/03/10 10:52:35;;;;;;;;;;;22.40;37.80;;;;;;5074430;28;19962;-44
2022/03/10 10:55:04;;;;;;;;;;;22.40;37.80;;;;;;5073578;28;19925;-46
2022/03/10 10:57:33;;;;;;;;;;;22.40;37.80;;;;;;5074584;28;20020;-45
2022/03/10 11:00:09;;;;;;;;;;;22.40;37.80;;;;;;5073884;28;19967;-43
2022/03/10 11:02:43;;;;;;;;;;;22.40;37.80;;;;;;5074362;28;20019;-44
2022/03/10 11:05:14;;;;;;;;;;;22.50;37.80;;;;;;5075268;28;19925;-42
2022/03/10 11:07:42;;;;;;;;;;;22.50;37.80;;;;;;5074926;28;19928;-45
2022/03/10 11:10:12;;;;;;;;;;;22.50;37.70;;;;;;5072901;28;19948;-42
2022/03/10 11:12:42;;;;;;;;;;;22.50;37.70;;;;;;5074007;28;19924;-42
2022/03/10 11:15:09;;;;;;;;;;;22.50;37.60;;;;;;5073951;28;19924;-44
2022/03/10 11:17:38;;;;;;;;;;;22.50;37.60;;;;;;5073976;28;20457;-43
2022/03/10 11:20:09;;;;;;;;;;;22.50;37.60;;;;;;5073744;28;19924;-42
2022/03/10 11:22:55;;;;;;;;;;;22.50;37.50;;;;;;5073648;28;20041;-42
2022/03/10 11:25:31;;;;;;;;;;;22.60;37.50;;;;;;5073305;28;19924;-44
2022/03/10 11:28:09;;;;;;;;;;;22.60;37.50;;;;;;5073983;28;19956;-42
2022/03/10 11:30:36;;;;;;;;;;;22.60;37.40;;;;;;5074096;28;20364;-43
2022/03/10 11:33:16;;;;;;;;;;;22.60;37.40;;;;;;5074084;28;19931;-45
2022/03/10 11:35:47;;;;;;;;;;;22.60;37.40;;;;;;5073621;28;19928;-44
2022/03/10 11:38:16;;;;;;;;;;;22.60;37.30;;;;;;5072149;28;19974;-43
2022/03/10 11:40:45;;;;;;;;;;;22.70;37.40;;;;;;5073569;28;20027;-45
2022/03/10 11:43:18;;;;;;;;;;;22.70;37.40;;;;;;5073560;28;20419;-42
2022/03/10 11:45:46;;;;;;;;;;;22.70;37.30;;;;;;5073267;28;19971;-47
2022/03/10 11:48:22;;;;;;;;;;;22.70;37.30;;;;;;5073983;28;19958;-44
2022/03/10 11:50:49;;;;;;;;;;;22.70;37.30;;;;;;5073282;28;20414;-45
2022/03/10 11:53:16;;;;;;;;;;;22.70;37.30;;;;;;5072802;28;19928;-45
2022/03/10 11:55:43;;;;;;;;;;;22.70;37.30;;;;;;5036031;28;20438;-43
2022/03/10 11:58:14;;;;;;;;;;;22.70;37.90;;;;;;5053196;28;19972;-41
2022/03/10 12:00:41;;;;;;;;;;;22.70;37.30;;;;;;5053441;28;19987;-48
2022/03/10 12:03:08;;;;;;;;;;;22.70;37.20;;;;;;5053466;28;20380;-44
2022/03/10 12:05:52;;;;;;;;;;;22.70;37.20;;;;;;5053478;28;19968;-47
2022/03/10 12:08:20;;;;;;;;;;;22.70;37.20;;;;;;5053094;28;19925;-45
2022/03/10 12:10:47;;;;;;;;;;;22.70;37.20;;;;;;5052709;28;19932;-46
2022/03/10 12:13:28;;;;;;;;;;;22.80;37.30;;;;;;5053643;28;19932;-45
2022/03/10 12:15:56;;;;;;;;;;;22.80;37.20;;;;;;5053193;28;19932;-47
2022/03/10 12:18:24;;;;;;;;;;;22.80;37.20;;;;;;5055034;28;20015;-46
2022/03/10 12:20:55;;;;;;;;;;;22.80;37.20;;;;;;5056916;28;19960;-47
2022/03/10 12:23:25;;;;;;;;;;;22.80;37.20;;;;;;5057176;28;19978;-48
2022/03/10 12:25:54;;;;;;;;;;;22.80;37.20;;;;;;5075706;28;19929;-45
2022/03/10 12:28:24;;;;;;;;;;;22.80;37.20;;;;;;5076231;28;19924;-43
2022/03/10 12:31:01;;;;;;;;;;;22.80;37.20;;;;;;5077186;28;19924;-43
2022/03/10 12:33:29;;;;;;;;;;;22.80;37.20;;;;;;5076900;28;19981;-46
2022/03/10 12:35:56;;;;;;;;;;;22.80;37.20;;;;;;5076927;28;19924;-50
2022/03/10 12:38:40;;;;;;;;;;;22.80;37.20;;;;;;5076733;28;20384;-46
2022/03/10 12:41:07;;;;;;;;;;;22.80;37.20;;;;;;5075895;28;19936;-48
2022/03/10 12:43:35;;;;;;;;;;;22.80;37.20;;;;;;5077170;28;19925;-47
2022/03/10 12:46:02;;;;;;;;;;;22.80;37.20;;;;;;5076586;28;19968;-50
2022/03/10 12:48:49;;;;;;;;;;;22.80;37.20;;;;;;5076169;28;19928;-49
2022/03/10 12:51:23;;;;;;;;;;;22.80;37.20;;;;;;5045889;28;19960;-45
2022/03/10 12:53:53;;;;;;;;;;;22.90;37.20;;;;;;5076402;28;19970;-48
2022/03/10 12:56:20;;;;;;;;;;;22.80;37.20;;;;;;5076727;28;19924;-46
2022/03/10 12:58:49;;;;;;;;;;;22.90;37.20;;;;;;5076607;28;19964;-43
2022/03/10 13:01:15;;;;;;;;;;;22.90;37.20;;;;;;5076047;28;19925;-47
2022/03/10 13:03:49;;;;;;;;;;;22.90;37.20;;;;;;5076488;28;19925;-44
2022/03/10 13:06:17;;;;;;;;;;;22.90;37.20;;;;;;5076555;28;19970;-45
2022/03/10 13:08:51;;;;;;;;;;;22.90;37.20;;;;;;5076418;28;19924;-46
2022/03/10 13:11:19;;;;;;;;;;;22.90;37.20;;;;;;5074736;28;20379;-49
2022/03/10 13:13:47;;;;;;;;;;;22.90;37.10;;;;;;5076033;28;19928;-45
2022/03/10 13:16:14;;;;;;;;;;;22.90;37.10;;;;;;5075865;28;20265;-44
2022/03/10 13:18:42;;;;;;;;;;;22.90;37.10;;;;;;5076559;28;20007;-44
2022/03/10 13:21:10;;;;;;;;;;;22.90;37.10;;;;;;5075899;28;19932;-48
2022/03/10 13:23:37;;;;;;;;;;;23.00;37.20;;;;;;5076141;28;19981;-45
2022/03/10 13:26:08;;;;;;;;;;;23.00;37.20;;;;;;5074412;28;19979;-44
2022/03/10 13:28:36;;;;;;;;;;;23.00;37.20;;;;;;5076314;28;19982;-44
2022/03/10 13:31:06;;;;;;;;;;;23.00;37.20;;;;;;5074743;28;19928;-47
2022/03/10 13:33:33;;;;;;;;;;;23.00;37.20;;;;;;5075861;28;19924;-44
2022/03/10 13:36:01;;;;;;;;;;;23.00;37.20;;;;;;5076178;28;19929;-45
2022/03/10 13:38:29;;;;;;;;;;;23.00;37.20;;;;;;5075778;28;20449;-43
2022/03/10 13:41:01;;;;;;;;;;;23.00;37.20;;;;;;5074530;28;19970;-43
2022/03/10 13:43:32;;;;;;;;;;;23.00;37.20;;;;;;5075691;28;19925;-43
2022/03/10 13:46:17;;;;;;;;;;;23.00;37.20;;;;;;5058384;28;20272;-50
2022/03/10 13:48:45;;;;;;;;;;;23.00;37.20;;;;;;5075115;28;20024;-42
2022/03/10 13:51:12;;;;;;;;;;;23.00;37.10;;;;;;5075156;28;19931;-45
2022/03/10 13:53:39;;;;;;;;;;;23.00;37.20;;;;;;5075206;28;19925;-43
2022/03/10 13:56:11;;;;;;;;;;;23.00;37.20;;;;;;5073755;28;19924;-43
2022/03/10 13:58:39;;;;;;;;;;;23.00;37.20;;;;;;5075144;28;20068;-45
2022/03/10 14:01:09;;;;;;;;;;;23.00;37.10;;;;;;5075695;28;19956;-45
2022/03/10 14:03:42;;;;;;;;;;;23.00;37.10;;;;;;5076307;28;20034;-43
2022/03/10 14:06:14;;;;;;;;;;;23.00;37.10;;;;;;5075638;28;19924;-43
2022/03/10 14:08:46;;;;;;;;;;;23.00;37.10;;;;;;5075609;28;19924;-44
2022/03/10 14:11:13;;;;;;;;;;;23.00;37.10;;;;;;5056073;28;19948;-49
2022/03/10 14:13:47;;;;;;;;;;;23.00;37.10;;;;;;5075033;28;20384;-44
2022/03/10 14:16:15;;;;;;;;;;;23.00;37.10;;;;;;5074773;28;19955;-45
2022/03/10 14:18:43;;;;;;;;;;;23.10;37.20;;;;;;5075023;28;20321;-42
2022/03/10 14:21:11;;;;;;;;;;;23.10;37.20;;;;;;5074909;28;19925;-46
2022/03/10 14:23:38;;;;;;;;;;;23.10;37.20;;;;;;5075105;28;19978;-44
2022/03/10 14:26:09;;;;;;;;;;;23.10;37.20;;;;;;5073894;28;20294;-44
2022/03/10 14:28:37;;;;;;;;;;;23.10;37.10;;;;;;5075039;28;19924;-45